In Rescue
 
Open Full Screen Window  High Contrast Mode
Wind Gusting 00 knots
04
July 23, 2019 1:33 AM EDT
Weather Information
Wind Direction
  280 °
Wind Speed
  04 kt (5 mph)
Wind Gust
  00 kt (0 mph)
Altimeter
30.03 in
Visibility
10 SM
Temperature
12° C
54° F
Dewpoint
10° C
50° F
Humidity
88%
Sky Condition
Clear
VFR

METAR KSJX 230533Z AUTO 28004KT 10SM CLR 12/10 A3003 RMK AO2 T01160101

FAA Disclaimer: The data displayed is for advisory purposes only and is not to be used for flight planning or operations.